Time;durP1;ratioP1;P1;durP2;ratioP2;P2;SDS_P1;SDS_P2;PMS_P1;PMS_P2;Temp;Humidity;BMP_temperature;BMP_pressure;BME280_temperature;BME280_humidity;BME280_pressure;Samples;Min_cycle;Max_cycle;Signal;HPM_P1;HPM_P2
2023/04/18 00:02:27;;;;;;;5.28;3.15;;;15.70;54.50;;;;;;6248043;28;20128;-68
2023/04/18 00:05:28;;;;;;;5.00;2.95;;;15.70;54.50;;;;;;6249929;28;20037;-68
2023/04/18 00:08:29;;;;;;;5.22;2.78;;;15.70;54.40;;;;;;6249079;28;20023;-68
2023/04/18 00:11:30;;;;;;;6.35;3.15;;;15.70;54.50;;;;;;6249325;28;20037;-68
2023/04/18 00:14:33;;;;;;;6.30;3.25;;;15.60;54.50;;;;;;6249500;28;20167;-68
2023/04/18 00:17:37;;;;;;;6.32;3.10;;;15.60;54.60;;;;;;6232019;28;20075;-68
2023/04/18 00:20:38;;;;;;;7.57;3.78;;;15.70;54.60;;;;;;6249459;28;20033;-68
2023/04/18 00:23:38;;;;;;;6.13;3.38;;;15.70;54.60;;;;;;6250176;28;20142;-67
2023/04/18 00:26:39;;;;;;;5.90;3.35;;;15.70;55.30;;;;;;6249619;28;20033;-70
2023/04/18 00:29:41;;;;;;;6.28;3.30;;;15.70;54.70;;;;;;6252866;28;20112;-67
2023/04/18 00:32:42;;;;;;;5.32;3.17;;;15.70;54.70;;;;;;6254358;28;20573;-68
2023/04/18 00:35:43;;;;;;;6.10;3.03;;;15.70;54.70;;;;;;6253718;28;20040;-67
2023/04/18 00:38:44;;;;;;;7.63;4.07;;;15.70;54.70;;;;;;6252944;28;20440;-68
2023/04/18 00:41:45;;;;;;;7.32;3.40;;;15.60;54.80;;;;;;6253271;28;20131;-67
2023/04/18 00:44:46;;;;;;;8.63;3.53;;;15.60;54.80;;;;;;6252014;28;20521;-68
2023/04/18 00:47:47;;;;;;;5.10;2.92;;;15.60;54.90;;;;;;6235403;28;20037;-68
2023/04/18 00:50:48;;;;;;;12.55;3.85;;;15.60;54.90;;;;;;6251804;28;20052;-68
2023/04/18 00:53:50;;;;;;;5.82;2.83;;;15.60;54.90;;;;;;6253708;28;20060;-68
2023/04/18 00:56:51;;;;;;;7.13;3.55;;;15.60;55.50;;;;;;6251393;28;20041;-67
2023/04/18 00:59:52;;;;;;;4.88;2.97;;;15.60;54.90;;;;;;6251452;28;20033;-67
2023/04/18 01:02:54;;;;;;;6.55;2.85;;;15.60;55.00;;;;;;6252676;28;20475;-67
2023/04/18 01:05:56;;;;;;;7.18;2.78;;;15.50;55.70;;;;;;6252968;28;20040;-68
2023/04/18 01:08:57;;;;;;;5.93;3.47;;;15.50;55.30;;;;;;6252068;28;20163;-68
2023/04/18 01:11:58;;;;;;;7.40;3.47;;;15.50;55.40;;;;;;6250778;28;20043;-69
2023/04/18 01:14:59;;;;;;;7.13;3.30;;;15.40;55.40;;;;;;6252661;28;20028;-67
2023/04/18 01:18:02;;;;;;;6.47;3.05;;;15.40;55.50;;;;;;6235374;28;20206;-67
2023/04/18 01:21:05;;;;;;;7.32;2.92;;;15.30;55.50;;;;;;6251775;28;20041;-68
2023/04/18 01:24:07;;;;;;;6.22;3.40;;;15.30;55.60;;;;;;6251320;28;20502;-69
2023/04/18 01:27:12;;;;;;;5.32;3.08;;;15.30;55.70;;;;;;6249860;28;20381;-69
2023/04/18 01:30:13;;;;;;;6.47;3.55;;;15.30;55.80;;;;;;6252857;28;20033;-66
2023/04/18 01:33:14;;;;;;;6.00;3.35;;;15.20;55.90;;;;;;6252323;28;20064;-66
2023/04/18 01:36:14;;;;;;;5.43;3.55;;;15.20;56.00;;;;;;6235223;28;20099;-67
2023/04/18 01:39:17;;;;;;;7.05;3.60;;;15.10;56.00;;;;;;6250983;28;20037;-68
2023/04/18 01:42:19;;;;;;;7.32;2.90;;;15.10;56.10;;;;;;6250537;28;20080;-70
2023/04/18 01:45:21;;;;;;;6.78;3.28;;;15.10;56.20;;;;;;6234110;28;20059;-68
2023/04/18 01:48:21;;;;;;;6.22;3.47;;;15.10;56.30;;;;;;6252317;28;20061;-67
2023/04/18 01:51:22;;;;;;;5.82;3.13;;;15.10;56.30;;;;;;6251648;28;20296;-68
2023/04/18 01:54:23;;;;;;;4.72;2.75;;;15.10;56.30;;;;;;6252324;28;20040;-67
2023/04/18 01:57:27;;;;;;;7.03;3.58;;;15.10;56.40;;;;;;6249908;28;20040;-67
2023/04/18 02:00:28;;;;;;;5.93;3.38;;;15.10;56.50;;;;;;6250758;28;20033;-69
2023/04/18 02:03:29;;;;;;;5.38;3.05;;;15.00;56.50;;;;;;6251891;28;20041;-67
2023/04/18 02:06:30;;;;;;;11.93;3.15;;;15.00;56.60;;;;;;6233780;28;20036;-68
2023/04/18 02:09:31;;;;;;;8.82;3.45;;;15.00;56.70;;;;;;6249743;28;20410;-67
2023/04/18 02:12:33;;;;;;;7.70;3.70;;;14.90;56.80;;;;;;6233172;28;20037;-68
2023/04/18 02:15:34;;;;;;;6.65;3.50;;;14.90;56.90;;;;;;6249689;28;20418;-66
2023/04/18 02:18:35;;;;;;;9.27;3.08;;;14.90;56.90;;;;;;6251152;28;20144;-68
2023/04/18 02:21:36;;;;;;;12.68;3.63;;;14.80;57.00;;;;;;6251453;28;20476;-69
2023/04/18 02:24:37;;;;;;;6.07;3.38;;;14.80;57.10;;;;;;6249283;28;20033;-67
2023/04/18 02:27:38;;;;;;;5.85;3.00;;;14.70;57.20;;;;;;6249694;28;20112;-68
2023/04/18 02:30:39;;;;;;;5.38;2.97;;;14.70;57.20;;;;;;6251885;28;20045;-66
2023/04/18 02:33:46;;;;;;;6.82;3.03;;;14.70;57.40;;;;;;6249944;28;20116;-69
2023/04/18 02:36:47;;;;;;;7.25;3.60;;;14.60;57.50;;;;;;6249691;28;20036;-67
2023/04/18 02:39:48;;;;;;;5.55;3.40;;;14.60;57.70;;;;;;6249276;28;20040;-68
2023/04/18 02:42:49;;;;;;;4.93;3.40;;;14.60;57.90;;;;;;6250400;28;20339;-67
2023/04/18 02:45:50;;;;;;;7.18;3.30;;;14.60;57.90;;;;;;6250592;28;20073;-67
2023/04/18 02:48:51;;;;;;;9.38;3.72;;;14.60;57.90;;;;;;6250388;28;20051;-67
2023/04/18 02:51:56;;;;;;;5.22;3.20;;;14.60;57.90;;;;;;6248734;28;20044;-68
2023/04/18 02:54:57;;;;;;;6.18;3.63;;;14.60;57.90;;;;;;6249236;28;20037;-69
2023/04/18 02:58:02;;;;;;;7.03;3.88;;;14.80;57.80;;;;;;6249023;28;20037;-69
2023/04/18 03:01:21;;;;;;;;;;;14.70;57.70;;;;;;6250821;28;20053;-68
2023/04/18 03:04:32;;;;;;;4.60;3.17;;;14.70;57.70;;;;;;6250552;28;19909;-69
2023/04/18 03:07:36;;;;;;;6.20;3.55;;;14.70;57.50;;;;;;6248629;28;20327;-66
2023/04/18 03:10:38;;;;;;;7.45;3.55;;;14.70;57.50;;;;;;6248082;28;20068;-67
2023/04/18 03:13:40;;;;;;;7.45;3.33;;;14.70;57.60;;;;;;6248554;28;20335;-67
2023/04/18 03:16:41;;;;;;;5.78;3.53;;;14.80;57.60;;;;;;6248659;28;20094;-67
2023/04/18 03:19:45;;;;;;;5.30;3.10;;;14.80;57.60;;;;;;6247490;28;20033;-69
2023/04/18 03:22:48;;;;;;;6.68;3.40;;;14.90;57.50;;;;;;6250550;28;20089;-69
2023/04/18 03:25:54;;;;;;;8.32;3.40;;;14.90;57.50;;;;;;6248476;28;20037;-68
2023/04/18 03:28:56;;;;;;;5.53;3.20;;;14.90;57.40;;;;;;6248456;28;20041;-68
2023/04/18 03:31:57;;;;;;;4.40;2.53;;;15.00;57.30;;;;;;6250079;28;20041;-68
2023/04/18 03:34:58;;;;;;;5.05;2.75;;;15.00;57.20;;;;;;6249009;28;20473;-66
2023/04/18 03:37:59;;;;;;;5.72;2.55;;;15.10;57.00;;;;;;6247674;28;20087;-69
2023/04/18 03:41:06;;;;;;;9.00;2.67;;;15.10;56.70;;;;;;6231821;28;20029;-67
2023/04/18 03:44:10;;;;;;;3.42;2.45;;;15.10;56.50;;;;;;6247756;28;20025;-68
2023/04/18 03:47:13;;;;;;;4.97;2.80;;;15.10;56.40;;;;;;6247787;28;20047;-67
2023/04/18 03:50:17;;;;;;;1.98;1.67;;;15.10;56.20;;;;;;6247551;28;20059;-67
2023/04/18 03:53:20;;;;;;;4.57;2.22;;;15.10;56.10;;;;;;6248670;28;20025;-71
2023/04/18 03:56:22;;;;;;;3.00;2.13;;;15.10;56.00;;;;;;6247795;28;20029;-67
2023/04/18 03:59:25;;;;;;;6.95;2.30;;;15.10;56.10;;;;;;6247427;28;20072;-68
2023/04/18 04:02:26;;;;;;;3.20;2.28;;;15.10;55.80;;;;;;6231115;28;20035;-68
2023/04/18 04:05:27;;;;;;;4.40;2.45;;;15.20;55.70;;;;;;6254015;28;20037;-69
2023/04/18 04:08:28;;;;;;;5.68;2.20;;;15.10;55.60;;;;;;6236134;28;20021;-68
2023/04/18 04:11:29;;;;;;;5.40;3.13;;;15.10;55.60;;;;;;6252879;28;20094;-67
2023/04/18 04:14:31;;;;;;;8.75;2.28;;;15.10;55.60;;;;;;6235951;28;20128;-68
2023/04/18 04:17:32;;;;;;;3.78;2.20;;;15.10;55.70;;;;;;6251964;28;20423;-67
2023/04/18 04:20:33;;;;;;;4.22;2.00;;;15.10;55.60;;;;;;6253041;28;20043;-67
2023/04/18 04:23:42;;;;;;;3.65;2.17;;;15.00;55.60;;;;;;6252066;28;20115;-68
2023/04/18 04:26:49;;;;;;;3.58;1.90;;;15.00;55.50;;;;;;6252062;28;20089;-67
2023/04/18 04:29:56;;;;;;;4.25;2.17;;;15.00;55.50;;;;;;6251592;28;20117;-68
2023/04/18 04:32:58;;;;;;;2.70;1.70;;;15.00;55.30;;;;;;6252328;28;20082;-69
2023/04/18 04:36:00;;;;;;;3.60;1.83;;;15.00;55.30;;;;;;6251721;28;20338;-67
2023/04/18 04:39:04;;;;;;;3.20;2.00;;;14.90;55.20;;;;;;6251600;28;20045;-70
2023/04/18 04:42:25;;;;;;;2.70;1.83;;;14.90;55.20;;;;;;6256245;28;20380;-67
2023/04/18 04:45:37;;;;;;;3.38;1.95;;;14.90;55.20;;;;;;6251893;28;20076;-68
2023/04/18 04:48:38;;;;;;;2.95;1.73;;;14.80;55.10;;;;;;6250981;28;20304;-68
2023/04/18 04:51:39;;;;;;;2.85;1.70;;;14.80;55.10;;;;;;6251501;28;20536;-67
2023/04/18 04:54:40;;;;;;;3.92;2.13;;;14.80;55.10;;;;;;6251461;28;20116;-67
2023/04/18 04:57:44;;;;;;;4.55;1.90;;;14.80;55.10;;;;;;6251087;28;20349;-69
2023/04/18 05:01:15;;;;;;;2.63;1.98;;;14.70;55.10;;;;;;6251296;28;20485;-68
2023/04/18 05:04:16;;;;;;;6.38;2.00;;;14.70;55.20;;;;;;6235350;28;20622;-69
2023/04/18 05:07:17;;;;;;;3.33;2.22;;;14.70;55.30;;;;;;6253249;28;20036;-70
2023/04/18 05:10:18;;;;;;;5.22;1.83;;;14.70;55.30;;;;;;6252235;28;20037;-67
2023/04/18 05:13:20;;;;;;;6.00;2.10;;;14.60;55.30;;;;;;6252441;28;20751;-66
2023/04/18 05:16:20;;;;;;;5.18;2.40;;;14.70;55.40;;;;;;6252067;28;20143;-68
2023/04/18 05:19:22;;;;;;;3.10;1.90;;;14.60;55.40;;;;;;6252666;28;20044;-66
2023/04/18 05:22:23;;;;;;;2.72;2.00;;;14.70;55.40;;;;;;6252451;28;20458;-69
2023/04/18 05:25:24;;;;;;;2.90;1.95;;;14.60;55.30;;;;;;6253599;28;20181;-73
2023/04/18 05:28:26;;;;;;;2.95;1.95;;;14.60;55.30;;;;;;6252986;28;20026;-70
2023/04/18 05:31:26;;;;;;;3.28;1.92;;;14.60;55.20;;;;;;6252017;28;20021;-70
2023/04/18 05:34:27;;;;;;;7.05;2.53;;;14.60;55.30;;;;;;6253306;28;20030;-70
2023/04/18 05:37:28;;;;;;;2.30;1.75;;;14.60;55.20;;;;;;6253048;28;20112;-69
2023/04/18 05:40:29;;;;;;;2.72;1.95;;;14.70;55.20;;;;;;6251947;28;20077;-68
2023/04/18 05:43:30;;;;;;;3.65;2.13;;;14.70;55.10;;;;;;6251991;28;20072;-71
2023/04/18 05:46:31;;;;;;;4.53;2.25;;;14.80;55.00;;;;;;6253014;28;20025;-71
2023/04/18 05:49:32;;;;;;;4.00;2.38;;;14.80;54.80;;;;;;6251867;28;20109;-69
2023/04/18 05:52:35;;;;;;;2.75;1.90;;;14.80;54.70;;;;;;6252087;28;20684;-71
2023/04/18 05:55:38;;;;;;;2.72;1.60;;;14.80;54.60;;;;;;6253665;28;20032;-68
2023/04/18 05:58:38;;;;;;;5.28;2.58;;;14.80;54.60;;;;;;6251795;28;20458;-70
2023/04/18 06:01:39;;;;;;;3.17;2.05;;;14.90;54.60;;;;;;6250719;28;20025;-69
2023/04/18 06:04:41;;;;;;;5.68;2.35;;;14.90;54.40;;;;;;6251851;28;20032;-71
2023/04/18 06:07:42;;;;;;;6.25;2.40;;;15.00;54.40;;;;;;6234036;28;20585;-69
2023/04/18 06:10:43;;;;;;;3.60;2.25;;;15.00;54.20;;;;;;6251942;28;20025;-70
2023/04/18 06:13:44;;;;;;;6.47;2.95;;;15.10;54.10;;;;;;6250695;28;20128;-69
2023/04/18 06:16:45;;;;;;;4.68;2.55;;;15.10;54.00;;;;;;6250659;28;20157;-69
2023/04/18 06:19:46;;;;;;;3.90;2.45;;;15.10;53.90;;;;;;6250937;28;20033;-69
2023/04/18 06:22:46;;;;;;;3.80;2.47;;;15.10;53.90;;;;;;6251573;28;20039;-69
2023/04/18 06:25:49;;;;;;;3.80;2.35;;;15.10;53.70;;;;;;6248832;28;20041;-68
2023/04/18 06:28:50;;;;;;;4.45;2.42;;;15.10;53.70;;;;;;6249766;28;20071;-68
2023/04/18 06:31:51;;;;;;;4.82;2.63;;;15.20;53.70;;;;;;6251006;28;20033;-69
2023/04/18 06:34:51;;;;;;;3.28;2.20;;;15.20;53.70;;;;;;6249172;28;20030;-67
2023/04/18 06:37:52;;;;;;;5.13;2.47;;;15.20;53.70;;;;;;6250452;28;20031;-68
2023/04/18 06:40:53;;;;;;;10.38;2.55;;;15.20;53.50;;;;;;6249512;28;20725;-69
2023/04/18 06:43:54;;;;;;;5.32;2.70;;;15.20;53.50;;;;;;6249426;28;20091;-69
2023/04/18 06:46:55;;;;;;;10.77;2.63;;;15.20;53.50;;;;;;6250552;28;20103;-68
2023/04/18 06:49:56;;;;;;;4.90;3.00;;;15.10;53.50;;;;;;6250928;28;20120;-69
2023/04/18 06:52:57;;;;;;;8.45;3.22;;;15.20;54.30;;;;;;6251421;28;20421;-69
2023/04/18 06:55:58;;;;;;;7.25;2.85;;;15.30;53.60;;;;;;6232928;28;20342;-68
2023/04/18 06:58:59;;;;;;;3.55;2.47;;;15.20;53.50;;;;;;6253057;28;20210;-69
2023/04/18 07:02:00;;;;;;;9.00;3.58;;;15.20;53.50;;;;;;6250831;28;20023;-69
2023/04/18 07:05:01;;;;;;;5.65;2.25;;;15.30;53.50;;;;;;6252004;28;20429;-70
2023/04/18 07:08:02;;;;;;;7.47;2.78;;;15.20;53.40;;;;;;6251743;28;20724;-71
2023/04/18 07:11:03;;;;;;;5.72;2.55;;;15.30;53.40;;;;;;6233727;28;20064;-69
2023/04/18 07:14:03;;;;;;;6.45;3.22;;;15.30;53.40;;;;;;6251938;28;20676;-68
2023/04/18 07:17:04;;;;;;;6.97;3.00;;;15.40;53.40;;;;;;6250370;28;20037;-69
2023/04/18 07:20:06;;;;;;;7.53;2.80;;;15.50;53.40;;;;;;6251120;28;20030;-70
2023/04/18 07:23:09;;;;;;;6.05;2.60;;;15.60;53.30;;;;;;6251982;28;20112;-70
2023/04/18 07:26:12;;;;;;;15.32;2.85;;;15.70;53.10;;;;;;6250661;28;20025;-70
2023/04/18 07:29:12;;;;;;;4.63;3.00;;;15.90;52.90;;;;;;6250082;28;20166;-71
2023/04/18 07:32:13;;;;;;;6.60;3.05;;;15.90;52.60;;;;;;6251353;28;20401;-72
2023/04/18 07:35:14;;;;;;;7.78;3.35;;;16.00;52.40;;;;;;6250423;28;20029;-70
2023/04/18 07:38:15;;;;;;;5.15;3.13;;;16.10;52.40;;;;;;6253287;28;20017;-70
2023/04/18 07:41:16;;;;;;;5.45;3.20;;;16.20;52.20;;;;;;6255067;28;20033;-68
2023/04/18 07:44:17;;;;;;;6.00;3.47;;;16.20;52.10;;;;;;6254017;28;20319;-70
2023/04/18 07:47:18;;;;;;;7.20;3.20;;;16.30;52.60;;;;;;6252841;28;20497;-69
2023/04/18 07:50:19;;;;;;;6.38;3.03;;;16.40;51.80;;;;;;6254959;28;20036;-70
2023/04/18 07:53:20;;;;;;;4.55;2.50;;;16.50;51.70;;;;;;6254112;28;20036;-70
2023/04/18 07:56:21;;;;;;;5.05;2.92;;;16.60;51.50;;;;;;6253936;28;20139;-69
2023/04/18 07:59:22;;;;;;;4.50;2.80;;;16.80;51.30;;;;;;6256237;28;20051;-70
2023/04/18 08:02:23;;;;;;;6.35;3.05;;;16.80;51.00;;;;;;6254442;28;20021;-70
2023/04/18 08:05:24;;;;;;;5.68;3.00;;;17.00;50.70;;;;;;6253427;28;20433;-70
2023/04/18 08:08:24;;;;;;;5.88;3.08;;;17.00;50.50;;;;;;6256016;28;20040;-69
2023/04/18 08:11:26;;;;;;;9.13;3.63;;;17.20;50.40;;;;;;6255917;28;20389;-70
2023/04/18 08:14:27;;;;;;;10.10;4.18;;;17.40;50.10;;;;;;6258045;28;20219;-69
2023/04/18 08:17:28;;;;;;;7.03;3.55;;;17.50;49.80;;;;;;6252609;28;20034;-69
2023/04/18 08:20:29;;;;;;;7.55;3.40;;;17.70;49.30;;;;;;6253704;28;20041;-69
2023/04/18 08:23:30;;;;;;;4.60;3.08;;;17.70;49.10;;;;;;6253525;28;20066;-68
2023/04/18 08:26:30;;;;;;;10.07;2.85;;;17.80;48.90;;;;;;6254558;28;20112;-69
2023/04/18 08:29:32;;;;;;;7.13;2.65;;;17.90;48.40;;;;;;6253703;28;20033;-70
2023/04/18 08:32:34;;;;;;;5.13;2.88;;;18.00;48.20;;;;;;6255095;28;20114;-70
2023/04/18 08:35:35;;;;;;;4.88;2.83;;;18.10;47.90;;;;;;6254857;28;20049;-73
2023/04/18 08:38:35;;;;;;;7.18;3.20;;;18.20;47.70;;;;;;6251602;28;20025;-71
2023/04/18 08:41:40;;;;;;;5.97;3.22;;;18.40;47.70;;;;;;6253210;28;20070;-69
2023/04/18 08:44:41;;;;;;;7.82;3.85;;;18.70;47.00;;;;;;6253742;28;20743;-69
2023/04/18 08:47:42;;;;;;;8.98;4.00;;;18.70;46.60;;;;;;6254815;28;20025;-70
2023/04/18 08:50:44;;;;;;;3.75;2.42;;;18.90;46.20;;;;;;6253540;28;20095;-70
2023/04/18 08:53:47;;;;;;;4.97;2.53;;;18.90;45.90;;;;;;6254582;28;20036;-69
2023/04/18 08:57:03;;;;;;;7.85;3.17;;;18.90;45.90;;;;;;6252211;28;20033;-70
2023/04/18 09:00:08;;;;;;;4.22;2.60;;;18.80;45.90;;;;;;6253651;28;20405;-69
2023/04/18 09:03:14;;;;;;;4.88;3.10;;;18.80;46.10;;;;;;6254435;28;20478;-72
2023/04/18 09:06:17;;;;;;;4.18;2.78;;;18.80;46.30;;;;;;6256921;28;20041;-70
2023/04/18 09:09:26;;;;;;;5.28;3.15;;;18.80;46.20;;;;;;6252184;28;20048;-71
2023/04/18 09:12:28;;;;;;;;;;;18.80;46.10;;;;;;6251910;28;20128;-70
2023/04/18 09:15:29;;;;;;;6.88;3.30;;;18.90;46.20;;;;;;6253854;28;19913;-70
2023/04/18 09:18:31;;;;;;;5.35;3.25;;;19.00;46.10;;;;;;6252643;28;20484;-69
2023/04/18 09:21:32;;;;;;;4.68;2.67;;;19.10;46.20;;;;;;6253008;28;20039;-70
2023/04/18 09:24:33;;;;;;;5.93;3.00;;;19.00;46.30;;;;;;6253895;28;20425;-70
2023/04/18 09:27:34;;;;;;;4.43;2.28;;;19.10;45.90;;;;;;6250898;28;20338;-69
2023/04/18 09:30:40;;;;;;;4.38;2.65;;;19.20;45.70;;;;;;6251381;28;20104;-74
2023/04/18 09:33:55;;;;;;;5.55;2.42;;;19.20;45.60;;;;;;6252517;28;20035;-70
2023/04/18 09:37:11;;;;;;;11.63;2.75;;;19.30;45.40;;;;;;6255765;28;20096;-70
2023/04/18 09:40:19;;;;;;;5.55;3.35;;;19.30;45.30;;;;;;6252141;28;20043;-69
2023/04/18 09:43:23;;;;;;;3.75;2.63;;;19.30;45.30;;;;;;6254813;28;20043;-70
2023/04/18 09:46:26;;;;;;;3.95;2.78;;;19.40;45.30;;;;;;6251277;28;20025;-71
2023/04/18 09:49:27;;;;;;;4.30;2.90;;;19.40;45.20;;;;;;6251379;28;20045;-71
2023/04/18 09:52:34;;;;;;;5.65;2.88;;;19.40;45.00;;;;;;6251191;28;20430;-74
2023/04/18 09:55:35;;;;;;;7.50;2.92;;;19.50;45.00;;;;;;6251475;28;20042;-72
2023/04/18 09:58:40;;;;;;;6.10;3.28;;;19.50;45.00;;;;;;6251979;28;20028;-70
2023/04/18 10:01:46;;;;;;;11.20;4.93;;;19.60;44.90;;;;;;6251455;28;20125;-69
2023/04/18 10:04:49;;;;;;;13.60;4.50;;;19.70;44.60;;;;;;6250826;28;20191;-70
2023/04/18 10:07:51;;;;;;;4.65;2.97;;;19.70;44.60;;;;;;6251134;28;20112;-68
2023/04/18 10:10:55;;;;;;;4.68;2.97;;;19.80;44.70;;;;;;6249784;28;20021;-70
2023/04/18 10:14:08;;;;;;;11.65;3.78;;;19.80;44.40;;;;;;6233620;28;20038;-69
2023/04/18 10:17:10;;;;;;;14.70;5.15;;;19.90;43.90;;;;;;6251776;28;20354;-71
2023/04/18 10:20:18;;;;;;;7.13;3.22;;;19.90;43.80;;;;;;6250290;28;20044;-70
2023/04/18 10:23:34;;;;;;;;;;;20.00;43.80;;;;;;6252911;28;20064;-69
2023/04/18 10:26:49;;;;;;;5.25;3.15;;;20.00;43.70;;;;;;6251692;28;19971;-69
2023/04/18 10:29:51;;;;;;;10.90;3.22;;;20.10;43.50;;;;;;6251346;28;20064;-70
2023/04/18 10:32:54;;;;;;;4.78;2.58;;;20.20;43.20;;;;;;6251032;28;20026;-70
2023/04/18 10:35:57;;;;;;;4.65;2.97;;;20.40;43.00;;;;;;6249988;28;20049;-70
2023/04/18 10:39:20;;;;;;;7.63;3.03;;;20.40;42.70;;;;;;6249981;28;20147;-73
2023/04/18 10:42:57;;;;;;;7.45;2.33;;;20.60;42.60;;;;;;6250619;28;20119;-70
2023/04/18 10:46:09;;;;;;;5.75;2.13;;;20.80;42.20;;;;;;6252711;28;20053;-70
2023/04/18 10:49:18;;;;;;;3.78;2.25;;;21.00;41.60;;;;;;6249143;28;20136;-71
2023/04/18 10:53:16;;;;;;;4.30;2.33;;;21.30;41.20;;;;;;6252591;28;20547;-70
2023/04/18 10:56:21;;;;;;;3.45;2.10;;;21.60;40.40;;;;;;6251230;28;20504;-71
2023/04/18 10:59:35;;;;;;;3.08;1.88;;;22.00;39.60;;;;;;6253906;28;20036;-69
2023/04/18 11:03:11;;;;;;;3.53;2.33;;;22.30;39.30;;;;;;6251471;28;20091;-70
2023/04/18 11:06:54;;;;;;;3.50;2.40;;;22.50;38.60;;;;;;6229632;28;20036;-70
2023/04/18 11:09:59;;;;;;;5.40;2.08;;;22.60;38.00;;;;;;6250663;28;20416;-71
2023/04/18 11:13:09;;;;;;;2.65;1.95;;;23.00;37.30;;;;;;6250128;28;20036;-70
2023/04/18 11:16:25;;;;;;;8.00;2.20;;;23.30;36.60;;;;;;6250998;28;20041;-71
2023/04/18 11:19:26;;;;;;;2.72;1.85;;;23.60;36.30;;;;;;6246512;28;20482;-71
2023/04/18 11:22:28;;;;;;;2.80;2.10;;;24.10;36.00;;;;;;6248258;28;20048;-71
2023/04/18 11:25:35;;;;;;;2.95;1.50;;;24.60;35.30;;;;;;6245296;28;20124;-70
2023/04/18 11:28:36;;;;;;;3.50;1.90;;;25.00;34.30;;;;;;6229157;28;20056;-69
2023/04/18 11:31:37;;;;;;;3.15;2.10;;;25.40;33.80;;;;;;6245866;28;20112;-70
2023/04/18 11:34:38;;;;;;;2.80;1.92;;;25.50;33.40;;;;;;6247723;28;20170;-70
2023/04/18 11:37:50;;;;;;;11.93;2.10;;;25.90;32.90;;;;;;6231629;28;20501;-71
2023/04/18 11:40:51;;;;;;;2.60;1.80;;;26.00;32.30;;;;;;6248313;28;20409;-70
2023/04/18 11:43:52;;;;;;;4.68;2.33;;;25.90;32.20;;;;;;6250169;28;20064;-71
2023/04/18 11:46:53;;;;;;;2.65;1.90;;;25.70;32.10;;;;;;6247768;28;20492;-70
2023/04/18 11:49:59;;;;;;;3.90;2.55;;;25.60;32.20;;;;;;6248435;28;20588;-69
2023/04/18 11:53:00;;;;;;;6.15;2.15;;;25.60;32.30;;;;;;6250493;28;20312;-71
2023/04/18 11:56:02;;;;;;;7.55;2.58;;;25.80;32.30;;;;;;6249949;28;20033;-71
2023/04/18 11:59:09;;;;;;;4.38;2.38;;;26.10;32.10;;;;;;6248512;28;20033;-71
2023/04/18 12:02:10;;;;;;;5.40;2.42;;;26.30;31.80;;;;;;6250796;28;20025;-70
2023/04/18 12:05:22;;;;;;;3.67;2.58;;;26.70;31.30;;;;;;6250488;28;20594;-69
2023/04/18 12:08:24;;;;;;;20.70;2.70;;;27.00;31.00;;;;;;6250325;28;20020;-70
2023/04/18 12:11:25;;;;;;;2.65;2.15;;;27.40;30.70;;;;;;6249204;28;20160;-70
2023/04/18 12:14:27;;;;;;;4.25;2.60;;;27.90;30.00;;;;;;6248957;28;20441;-71
2023/04/18 12:17:29;;;;;;;7.10;2.60;;;28.10;29.70;;;;;;6248927;28;20037;-70
2023/04/18 12:20:35;;;;;;;5.50;2.10;;;28.10;29.60;;;;;;6248992;28;20152;-69
2023/04/18 12:23:38;;;;;;;3.42;2.03;;;28.30;29.40;;;;;;6249002;28;20543;-70
2023/04/18 12:26:45;;;;;;;5.20;2.10;;;28.70;29.10;;;;;;6254569;28;20084;-70
2023/04/18 12:29:45;;;;;;;9.48;2.15;;;29.10;28.60;;;;;;6268445;28;20041;-70
2023/04/18 12:32:54;;;;;;;2.95;2.08;;;29.40;28.40;;;;;;6254007;28;20025;-71
2023/04/18 12:35:55;;;;;;;3.58;2.30;;;29.60;28.00;;;;;;6253729;28;20033;-70
2023/04/18 12:38:56;;;;;;;8.57;2.40;;;29.80;27.70;;;;;;6253633;28;20088;-70
2023/04/18 12:41:57;;;;;;;3.25;2.08;;;30.10;27.60;;;;;;6235686;28;20526;-71
2023/04/18 12:44:59;;;;;;;5.30;2.65;;;30.40;27.50;;;;;;6253261;28;20076;-71
2023/04/18 12:48:00;;;;;;;4.40;2.40;;;30.90;27.10;;;;;;6253391;28;20064;-71
2023/04/18 12:51:01;;;;;;;4.32;1.98;;;31.20;26.90;;;;;;6252801;28;20052;-73
2023/04/18 12:54:02;;;;;;;2.72;1.88;;;30.70;26.80;;;;;;6252599;28;20155;-72
2023/04/18 12:57:03;;;;;;;8.48;2.15;;;29.90;27.40;;;;;;6252176;28;20026;-71
2023/04/18 13:00:11;;;;;;;2.65;1.95;;;29.10;28.10;;;;;;6252842;28;20500;-71
2023/04/18 13:03:12;;;;;;;4.03;1.85;;;28.80;28.40;;;;;;6253189;28;20104;-69
2023/04/18 13:06:13;;;;;;;2.17;1.85;;;29.10;28.20;;;;;;6251820;28;20393;-69
2023/04/18 13:09:15;;;;;;;3.33;2.42;;;29.50;27.80;;;;;;6251734;28;20068;-69
2023/04/18 13:12:16;;;;;;;4.45;2.40;;;30.00;27.40;;;;;;6251994;28;20087;-70
2023/04/18 13:15:21;;;;;;;3.60;2.38;;;30.60;26.90;;;;;;6252771;28;20075;-70
2023/04/18 13:18:22;;;;;;;5.55;1.75;;;31.10;26.40;;;;;;6251441;28;20334;-70
2023/04/18 13:21:24;;;;;;;4.10;2.60;;;31.30;26.10;;;;;;6252858;28;20040;-70
2023/04/18 13:24:25;;;;;;;2.83;2.13;;;31.50;26.00;;;;;;6251528;28;20072;-69
2023/04/18 13:27:26;;;;;;;5.20;1.95;;;32.00;25.60;;;;;;6250987;28;20026;-70
2023/04/18 13:30:27;;;;;;;4.72;2.22;;;32.50;25.00;;;;;;6252144;28;20447;-70
2023/04/18 13:33:28;;;;;;;3.10;2.00;;;32.90;24.70;;;;;;6252512;28;20048;-70
2023/04/18 13:36:30;;;;;;;2.90;2.10;;;32.70;24.60;;;;;;6251531;28;20094;-71
2023/04/18 13:39:32;;;;;;;2.65;1.83;;;31.90;25.00;;;;;;6249400;28;20047;-70
2023/04/18 13:42:34;;;;;;;2.47;2.10;;;30.60;26.00;;;;;;6252579;28;20445;-69
2023/04/18 13:45:35;;;;;;;6.47;2.10;;;29.40;27.20;;;;;;6249155;28;20044;-70
2023/04/18 13:48:36;;;;;;;4.05;1.80;;;28.50;28.10;;;;;;6250796;28;20097;-72
2023/04/18 13:51:37;;;;;;;3.13;1.70;;;28.00;28.60;;;;;;6250351;28;20040;-71
2023/04/18 13:54:38;;;;;;;3.40;1.80;;;27.40;29.20;;;;;;6250540;28;20029;-71
2023/04/18 13:57:39;;;;;;;6.28;2.45;;;27.00;29.70;;;;;;6251931;28;20048;-72
2023/04/18 14:00:40;;;;;;;6.55;2.17;;;26.50;30.10;;;;;;6250170;28;20025;-71
2023/04/18 14:03:41;;;;;;;4.80;2.20;;;26.00;30.90;;;;;;6250973;28;20116;-70
2023/04/18 14:06:42;;;;;;;2.63;1.90;;;25.50;31.60;;;;;;6249444;28;20052;-70
2023/04/18 14:09:43;;;;;;;6.55;2.50;;;25.20;32.10;;;;;;6249968;28;20208;-70
2023/04/18 14:12:44;;;;;;;7.22;2.78;;;25.00;32.50;;;;;;6251405;28;20123;-69
2023/04/18 14:15:45;;;;;;;4.63;2.55;;;25.20;32.70;;;;;;6251388;28;20064;-71
2023/04/18 14:18:46;;;;;;;3.20;2.42;;;25.70;32.10;;;;;;6250957;28;20029;-70
2023/04/18 14:21:47;;;;;;;4.70;2.58;;;26.00;31.90;;;;;;6251459;28;20036;-70
2023/04/18 14:24:51;;;;;;;3.35;2.20;;;26.00;31.90;;;;;;6248654;28;20033;-70
2023/04/18 14:28:08;;;;;;;3.45;2.33;;;25.90;32.00;;;;;;6250457;28;20033;-71
2023/04/18 14:31:09;;;;;;;3.35;1.98;;;25.70;32.20;;;;;;6251800;28;20401;-71
2023/04/18 14:34:10;;;;;;;4.72;2.70;;;25.30;32.50;;;;;;6251521;28;20065;-71
2023/04/18 14:37:11;;;;;;;2.63;1.50;;;25.00;33.00;;;;;;6251675;28;20027;-70
2023/04/18 14:40:12;;;;;;;4.55;1.45;;;24.80;32.70;;;;;;6250881;28;20029;-71
2023/04/18 14:43:13;;;;;;;4.55;1.30;;;24.50;32.40;;;;;;6250726;28;20560;-70
2023/04/18 14:46:17;;;;;;;2.42;1.70;;;24.30;32.40;;;;;;6249966;28;20025;-71
2023/04/18 14:53:02;;;;;;;3.00;1.80;;;23.80;33.30;;;;;;6205181;28;20136;-70
2023/04/18 14:56:03;;;;;;;2.85;1.60;;;23.60;33.70;;;;;;6229561;28;20442;-72
2023/04/18 14:59:06;;;;;;;1.50;1.20;;;23.60;33.70;;;;;;6213571;28;20100;-71
2023/04/18 15:02:07;;;;;;;2.05;1.27;;;23.70;33.60;;;;;;6282966;23;20083;-70
2023/04/18 15:05:09;;;;;;;2.17;1.50;;;23.70;33.60;;;;;;6223314;28;20040;-70
2023/04/18 15:08:12;;;;;;;4.15;1.67;;;23.70;33.60;;;;;;6207200;28;20026;-71
2023/04/18 15:11:13;;;;;;;4.07;1.20;;;23.60;33.70;;;;;;6224282;28;20175;-72
2023/04/18 15:14:14;;;;;;;1.50;0.90;;;23.70;33.50;;;;;;6225970;28;20041;-71
2023/04/18 15:17:16;;;;;;;1.65;1.10;;;23.70;32.90;;;;;;6224861;28;20777;-70
2023/04/18 15:20:17;;;;;;;2.45;1.30;;;23.70;32.60;;;;;;6223207;28;20112;-71
2023/04/18 15:23:19;;;;;;;3.10;1.35;;;23.60;32.70;;;;;;6224848;28;20036;-70
2023/04/18 15:26:20;;;;;;;2.72;1.45;;;23.70;32.70;;;;;;6209716;28;20061;-71
2023/04/18 15:29:22;;;;;;;1.25;0.85;;;23.80;32.90;;;;;;6210301;28;20037;-73
2023/04/18 15:32:23;;;;;;;1.42;1.00;;;23.70;32.10;;;;;;6209050;28;20455;-69
2023/04/18 15:35:25;;;;;;;2.15;1.40;;;23.70;31.60;;;;;;6216564;28;20125;-70
2023/04/18 15:38:26;;;;;;;1.55;1.00;;;23.60;31.80;;;;;;6224277;28;20029;-69
2023/04/18 15:41:28;;;;;;;3.20;1.38;;;23.40;31.90;;;;;;6224706;28;20029;-70
2023/04/18 15:44:29;;;;;;;3.83;1.83;;;23.20;32.30;;;;;;6223645;28;20195;-71
2023/04/18 15:47:32;;;;;;;1.42;1.20;;;23.00;32.60;;;;;;6225023;28;20109;-71
2023/04/18 15:50:34;;;;;;;2.58;1.42;;;22.80;33.20;;;;;;6225438;28;20108;-71
2023/04/18 15:53:35;;;;;;;2.13;1.30;;;22.70;33.70;;;;;;6228246;28;20358;-73
2023/04/18 15:56:37;;;;;;;9.90;1.17;;;22.50;34.10;;;;;;6223753;28;20026;-70
2023/04/18 15:59:38;;;;;;;3.08;1.35;;;22.40;34.30;;;;;;6227885;28;20022;-70